sensor_id;sensor_type;location;lat;lon;timestamp;temperature;humidity
435;DHT22;204;48.942;9.256;2022-12-29T00:01:29;10.00;1.00
435;DHT22;204;48.942;9.256;2022-12-29T00:03:54;10.00;1.00
435;DHT22;204;48.942;9.256;2022-12-29T00:06:20;10.10;1.00
435;DHT22;204;48.942;9.256;2022-12-29T00:08:46;10.10;1.00
435;DHT22;204;48.942;9.256;2022-12-29T00:11:37;10.20;1.00
435;DHT22;204;48.942;9.256;2022-12-29T00:14:03;10.20;1.00
435;DHT22;204;48.942;9.256;2022-12-29T00:16:47;10.20;1.00
435;DHT22;204;48.942;9.256;2022-12-29T00:19:13;10.30;1.00
435;DHT22;204;48.942;9.256;2022-12-29T00:22:02;10.30;1.00
435;DHT22;204;48.942;9.256;2022-12-29T00:24:46;10.30;1.00
435;DHT22;204;48.942;9.256;2022-12-29T00:27:27;10.30;1.00
435;DHT22;204;48.942;9.256;2022-12-29T00:30:17;10.30;1.00
435;DHT22;204;48.942;9.256;2022-12-29T00:33:12;10.30;1.00
435;DHT22;204;48.942;9.256;2022-12-29T00:36:06;10.30;1.00
435;DHT22;204;48.942;9.256;2022-12-29T00:38:36;10.30;1.00
435;DHT22;204;48.942;9.256;2022-12-29T00:41:20;10.30;1.00
435;DHT22;204;48.942;9.256;2022-12-29T00:44:05;10.30;1.00
435;DHT22;204;48.942;9.256;2022-12-29T00:46:34;10.40;1.00
435;DHT22;204;48.942;9.256;2022-12-29T00:49:01;10.40;1.00
435;DHT22;204;48.942;9.256;2022-12-29T00:51:46;10.50;1.00
435;DHT22;204;48.942;9.256;2022-12-29T00:54:12;10.50;1.00
435;DHT22;204;48.942;9.256;2022-12-29T00:56:38;10.50;1.00
435;DHT22;204;48.942;9.256;2022-12-29T00:59:05;10.50;1.00
435;DHT22;204;48.942;9.256;2022-12-29T01:01:32;10.60;1.00
435;DHT22;204;48.942;9.256;2022-12-29T01:03:58;10.60;1.00
435;DHT22;204;48.942;9.256;2022-12-29T01:06:24;10.60;1.00
435;DHT22;204;48.942;9.256;2022-12-29T01:08:50;10.70;1.00
435;DHT22;204;48.942;9.256;2022-12-29T01:11:35;10.70;1.00
435;DHT22;204;48.942;9.256;2022-12-29T01:14:01;10.70;1.00
435;DHT22;204;48.942;9.256;2022-12-29T01:16:26;10.70;1.00
435;DHT22;204;48.942;9.256;2022-12-29T01:18:52;10.80;1.00
435;DHT22;204;48.942;9.256;2022-12-29T01:21:17;10.80;1.00
435;DHT22;204;48.942;9.256;2022-12-29T01:23:43;10.80;1.00
435;DHT22;204;48.942;9.256;2022-12-29T01:26:14;10.80;1.00
435;DHT22;204;48.942;9.256;2022-12-29T01:28:40;10.80;1.00
435;DHT22;204;48.942;9.256;2022-12-29T01:31:07;10.90;1.00
435;DHT22;204;48.942;9.256;2022-12-29T01:33:33;10.90;1.00
435;DHT22;204;48.942;9.256;2022-12-29T01:36:03;10.90;1.00
435;DHT22;204;48.942;9.256;2022-12-29T01:38:30;10.90;1.00
435;DHT22;204;48.942;9.256;2022-12-29T01:40:55;10.90;1.00
435;DHT22;204;48.942;9.256;2022-12-29T01:43:21;11.00;1.00
435;DHT22;204;48.942;9.256;2022-12-29T01:45:51;11.00;1.00
435;DHT22;204;48.942;9.256;2022-12-29T01:48:19;11.00;1.00
435;DHT22;204;48.942;9.256;2022-12-29T01:50:54;11.00;1.00
435;DHT22;204;48.942;9.256;2022-12-29T01:53:27;11.10;1.00
435;DHT22;204;48.942;9.256;2022-12-29T01:55:58;11.10;1.00
435;DHT22;204;48.942;9.256;2022-12-29T01:58:29;11.10;1.00
435;DHT22;204;48.942;9.256;2022-12-29T02:00:55;11.20;1.00
435;DHT22;204;48.942;9.256;2022-12-29T02:03:22;11.20;1.00
435;DHT22;204;48.942;9.256;2022-12-29T02:08:30;11.20;1.00
435;DHT22;204;48.942;9.256;2022-12-29T02:10:56;11.20;1.00
435;DHT22;204;48.942;9.256;2022-12-29T02:13:26;11.20;1.00
435;DHT22;204;48.942;9.256;2022-12-29T02:18:52;11.30;1.00
435;DHT22;204;48.942;9.256;2022-12-29T02:30:04;11.30;1.00
435;DHT22;204;48.942;9.256;2022-12-29T02:38:03;11.30;1.00
435;DHT22;204;48.942;9.256;2022-12-29T02:40:51;11.30;1.00
435;DHT22;204;48.942;9.256;2022-12-29T02:43:24;11.30;1.00
435;DHT22;204;48.942;9.256;2022-12-29T02:46:03;11.30;1.00
435;DHT22;204;48.942;9.256;2022-12-29T02:48:45;11.30;1.00
435;DHT22;204;48.942;9.256;2022-12-29T02:51:57;11.30;1.00
435;DHT22;204;48.942;9.256;2022-12-29T02:54:20;11.30;1.00
435;DHT22;204;48.942;9.256;2022-12-29T02:57:14;11.30;1.00
435;DHT22;204;48.942;9.256;2022-12-29T02:59:42;11.30;1.00
435;DHT22;204;48.942;9.256;2022-12-29T03:07:48;11.30;1.00
435;DHT22;204;48.942;9.256;2022-12-29T03:16:57;11.40;1.00
435;DHT22;204;48.942;9.256;2022-12-29T03:19:30;11.50;1.00
435;DHT22;204;48.942;9.256;2022-12-29T03:22:07;11.50;1.00
435;DHT22;204;48.942;9.256;2022-12-29T03:24:54;11.50;1.00
435;DHT22;204;48.942;9.256;2022-12-29T03:27:29;11.60;1.00
435;DHT22;204;48.942;9.256;2022-12-29T03:30:00;11.60;1.00
435;DHT22;204;48.942;9.256;2022-12-29T03:32:48;11.60;1.00
435;DHT22;204;48.942;9.256;2022-12-29T03:35:17;11.70;1.00
435;DHT22;204;48.942;9.256;2022-12-29T03:40:18;11.70;1.00
435;DHT22;204;48.942;9.256;2022-12-29T03:42:47;11.80;1.00
435;DHT22;204;48.942;9.256;2022-12-29T03:45:13;11.80;1.00
435;DHT22;204;48.942;9.256;2022-12-29T03:47:39;11.80;1.00
435;DHT22;204;48.942;9.256;2022-12-29T03:50:05;11.80;1.00
435;DHT22;204;48.942;9.256;2022-12-29T03:52:31;11.90;1.00
435;DHT22;204;48.942;9.256;2022-12-29T03:54:57;11.90;1.00
435;DHT22;204;48.942;9.256;2022-12-29T03:57:22;11.80;1.00
435;DHT22;204;48.942;9.256;2022-12-29T03:59:48;11.80;1.00
435;DHT22;204;48.942;9.256;2022-12-29T04:02:15;11.90;1.00
435;DHT22;204;48.942;9.256;2022-12-29T04:04:40;11.90;1.00
435;DHT22;204;48.942;9.256;2022-12-29T04:07:06;11.90;1.00
435;DHT22;204;48.942;9.256;2022-12-29T04:09:31;11.90;1.00
435;DHT22;204;48.942;9.256;2022-12-29T04:11:57;12.00;1.00
435;DHT22;204;48.942;9.256;2022-12-29T04:14:22;11.90;1.00
435;DHT22;204;48.942;9.256;2022-12-29T04:16:48;12.00;1.00
435;DHT22;204;48.942;9.256;2022-12-29T04:19:14;12.00;1.00
435;DHT22;204;48.942;9.256;2022-12-29T04:21:39;12.00;1.00
435;DHT22;204;48.942;9.256;2022-12-29T04:24:05;12.00;1.00
435;DHT22;204;48.942;9.256;2022-12-29T04:26:32;12.10;1.00
435;DHT22;204;48.942;9.256;2022-12-29T04:28:58;12.10;1.00
435;DHT22;204;48.942;9.256;2022-12-29T04:31:23;12.10;1.00
435;DHT22;204;48.942;9.256;2022-12-29T04:33:49;12.10;1.00
435;DHT22;204;48.942;9.256;2022-12-29T04:36:14;12.20;1.00
435;DHT22;204;48.942;9.256;2022-12-29T04:38:40;12.20;1.00
435;DHT22;204;48.942;9.256;2022-12-29T04:41:06;12.30;1.00
435;DHT22;204;48.942;9.256;2022-12-29T04:43:31;12.20;1.00
435;DHT22;204;48.942;9.256;2022-12-29T04:45:57;12.20;1.00
435;DHT22;204;48.942;9.256;2022-12-29T04:48:22;12.20;1.00
435;DHT22;204;48.942;9.256;2022-12-29T04:50:48;12.10;1.00
435;DHT22;204;48.942;9.256;2022-12-29T04:53:15;12.10;1.00
435;DHT22;204;48.942;9.256;2022-12-29T04:55:41;12.10;1.00
435;DHT22;204;48.942;9.256;2022-12-29T04:58:07;12.00;1.00
435;DHT22;204;48.942;9.256;2022-12-29T05:00:32;12.00;1.00
435;DHT22;204;48.942;9.256;2022-12-29T05:02:58;12.00;1.00
435;DHT22;204;48.942;9.256;2022-12-29T05:05:24;12.00;1.00
435;DHT22;204;48.942;9.256;2022-12-29T05:07:50;12.00;1.00
435;DHT22;204;48.942;9.256;2022-12-29T05:10:15;12.10;1.00
435;DHT22;204;48.942;9.256;2022-12-29T05:12:42;12.00;1.00
435;DHT22;204;48.942;9.256;2022-12-29T05:15:08;12.00;1.00
435;DHT22;204;48.942;9.256;2022-12-29T05:17:34;12.00;1.00
435;DHT22;204;48.942;9.256;2022-12-29T05:20:00;12.00;1.00
435;DHT22;204;48.942;9.256;2022-12-29T05:22:25;12.00;1.00
435;DHT22;204;48.942;9.256;2022-12-29T05:24:51;11.90;1.00
435;DHT22;204;48.942;9.256;2022-12-29T05:27:16;11.90;1.00
435;DHT22;204;48.942;9.256;2022-12-29T05:29:42;11.80;1.00
435;DHT22;204;48.942;9.256;2022-12-29T05:32:08;11.90;1.00
435;DHT22;204;48.942;9.256;2022-12-29T05:34:33;11.90;1.00
435;DHT22;204;48.942;9.256;2022-12-29T05:36:59;12.00;1.00
435;DHT22;204;48.942;9.256;2022-12-29T05:39:24;12.00;1.00
435;DHT22;204;48.942;9.256;2022-12-29T05:41:50;12.10;1.00
435;DHT22;204;48.942;9.256;2022-12-29T05:44:15;12.10;1.00
435;DHT22;204;48.942;9.256;2022-12-29T05:46:41;12.20;1.00
435;DHT22;204;48.942;9.256;2022-12-29T05:49:06;12.10;1.00
435;DHT22;204;48.942;9.256;2022-12-29T05:51:32;12.20;1.00
435;DHT22;204;48.942;9.256;2022-12-29T05:53:58;12.20;1.00
435;DHT22;204;48.942;9.256;2022-12-29T05:56:24;12.30;1.00
435;DHT22;204;48.942;9.256;2022-12-29T05:58:50;12.20;1.00
435;DHT22;204;48.942;9.256;2022-12-29T06:01:15;12.20;1.00
435;DHT22;204;48.942;9.256;2022-12-29T06:03:41;12.30;1.00
435;DHT22;204;48.942;9.256;2022-12-29T06:06:06;12.40;1.00
435;DHT22;204;48.942;9.256;2022-12-29T06:08:32;12.40;1.00
435;DHT22;204;48.942;9.256;2022-12-29T06:10:58;12.40;1.00
435;DHT22;204;48.942;9.256;2022-12-29T06:13:23;12.40;1.00
435;DHT22;204;48.942;9.256;2022-12-29T06:15:49;12.50;1.00
435;DHT22;204;48.942;9.256;2022-12-29T06:18:16;12.50;1.00
435;DHT22;204;48.942;9.256;2022-12-29T06:20:41;12.50;1.00
435;DHT22;204;48.942;9.256;2022-12-29T06:23:07;12.60;1.00
435;DHT22;204;48.942;9.256;2022-12-29T06:25:32;12.60;1.00
435;DHT22;204;48.942;9.256;2022-12-29T06:27:59;12.60;1.00
435;DHT22;204;48.942;9.256;2022-12-29T06:30:25;12.60;1.00
435;DHT22;204;48.942;9.256;2022-12-29T06:32:50;12.70;1.00
435;DHT22;204;48.942;9.256;2022-12-29T06:35:16;12.70;1.00
435;DHT22;204;48.942;9.256;2022-12-29T06:37:42;12.70;1.00
435;DHT22;204;48.942;9.256;2022-12-29T06:40:09;12.70;1.00
435;DHT22;204;48.942;9.256;2022-12-29T06:42:34;12.70;1.00
435;DHT22;204;48.942;9.256;2022-12-29T06:45:00;12.70;1.00
435;DHT22;204;48.942;9.256;2022-12-29T06:47:26;12.70;1.00
435;DHT22;204;48.942;9.256;2022-12-29T06:49:52;12.70;1.00
435;DHT22;204;48.942;9.256;2022-12-29T06:52:17;12.60;1.00
435;DHT22;204;48.942;9.256;2022-12-29T06:54:43;12.60;1.00
435;DHT22;204;48.942;9.256;2022-12-29T06:57:08;12.60;1.00
435;DHT22;204;48.942;9.256;2022-12-29T06:59:34;12.60;1.00
435;DHT22;204;48.942;9.256;2022-12-29T07:01:59;12.60;1.00
435;DHT22;204;48.942;9.256;2022-12-29T07:04:27;12.50;1.00
435;DHT22;204;48.942;9.256;2022-12-29T07:06:53;12.50;1.00
435;DHT22;204;48.942;9.256;2022-12-29T07:09:18;12.30;1.00
435;DHT22;204;48.942;9.256;2022-12-29T07:11:44;12.30;1.00
435;DHT22;204;48.942;9.256;2022-12-29T07:14:10;12.20;1.00
435;DHT22;204;48.942;9.256;2022-12-29T07:16:36;12.20;1.00
435;DHT22;204;48.942;9.256;2022-12-29T07:19:02;12.10;1.00
435;DHT22;204;48.942;9.256;2022-12-29T07:21:28;12.10;1.00
435;DHT22;204;48.942;9.256;2022-12-29T07:23:54;12.00;1.00
435;DHT22;204;48.942;9.256;2022-12-29T07:26:20;12.00;1.00
435;DHT22;204;48.942;9.256;2022-12-29T07:28:45;12.00;1.00
435;DHT22;204;48.942;9.256;2022-12-29T07:31:15;12.00;1.00
435;DHT22;204;48.942;9.256;2022-12-29T07:33:42;11.90;1.00
435;DHT22;204;48.942;9.256;2022-12-29T07:36:09;11.90;1.00
435;DHT22;204;48.942;9.256;2022-12-29T07:38:34;11.90;1.00
435;DHT22;204;48.942;9.256;2022-12-29T07:41:00;11.90;1.00
435;DHT22;204;48.942;9.256;2022-12-29T07:43:25;11.90;1.00
435;DHT22;204;48.942;9.256;2022-12-29T07:45:51;11.90;1.00
435;DHT22;204;48.942;9.256;2022-12-29T07:48:16;11.80;1.00
435;DHT22;204;48.942;9.256;2022-12-29T07:50:42;11.90;1.00
435;DHT22;204;48.942;9.256;2022-12-29T07:53:08;11.80;1.00
435;DHT22;204;48.942;9.256;2022-12-29T07:55:33;11.90;1.00
435;DHT22;204;48.942;9.256;2022-12-29T07:57:59;11.80;1.00
435;DHT22;204;48.942;9.256;2022-12-29T08:00:24;11.80;1.00
435;DHT22;204;48.942;9.256;2022-12-29T08:02:50;11.80;1.00
435;DHT22;204;48.942;9.256;2022-12-29T08:05:16;11.80;1.00
435;DHT22;204;48.942;9.256;2022-12-29T08:07:45;11.80;1.00
435;DHT22;204;48.942;9.256;2022-12-29T08:10:12;11.90;1.00
435;DHT22;204;48.942;9.256;2022-12-29T08:12:39;11.80;1.00
435;DHT22;204;48.942;9.256;2022-12-29T08:15:05;11.80;1.00
435;DHT22;204;48.942;9.256;2022-12-29T08:17:31;11.90;1.00
435;DHT22;204;48.942;9.256;2022-12-29T08:19:57;11.80;1.00
435;DHT22;204;48.942;9.256;2022-12-29T08:22:22;11.90;1.00
435;DHT22;204;48.942;9.256;2022-12-29T08:24:48;11.90;1.00
435;DHT22;204;48.942;9.256;2022-12-29T08:27:14;11.90;1.00
435;DHT22;204;48.942;9.256;2022-12-29T08:29:39;11.90;1.00
435;DHT22;204;48.942;9.256;2022-12-29T08:32:05;12.00;1.00
435;DHT22;204;48.942;9.256;2022-12-29T08:34:32;12.00;1.00
435;DHT22;204;48.942;9.256;2022-12-29T08:36:57;12.00;1.00
435;DHT22;204;48.942;9.256;2022-12-29T08:39:23;12.00;1.00
435;DHT22;204;48.942;9.256;2022-12-29T08:41:48;12.10;1.00
435;DHT22;204;48.942;9.256;2022-12-29T08:44:14;12.20;1.00
435;DHT22;204;48.942;9.256;2022-12-29T08:46:40;12.20;1.00
435;DHT22;204;48.942;9.256;2022-12-29T08:49:05;12.30;1.00
435;DHT22;204;48.942;9.256;2022-12-29T08:51:31;12.30;1.00
435;DHT22;204;48.942;9.256;2022-12-29T08:53:56;12.40;1.00
435;DHT22;204;48.942;9.256;2022-12-29T08:56:22;12.40;1.00
435;DHT22;204;48.942;9.256;2022-12-29T08:58:49;12.60;1.00
435;DHT22;204;48.942;9.256;2022-12-29T09:01:15;12.60;1.00
435;DHT22;204;48.942;9.256;2022-12-29T09:03:40;12.80;1.00
435;DHT22;204;48.942;9.256;2022-12-29T09:06:06;12.80;1.00
435;DHT22;204;48.942;9.256;2022-12-29T09:08:32;12.90;1.00
435;DHT22;204;48.942;9.256;2022-12-29T09:11:09;12.90;1.00
435;DHT22;204;48.942;9.256;2022-12-29T09:13:35;13.00;1.00
435;DHT22;204;48.942;9.256;2022-12-29T09:16:01;13.10;1.00
435;DHT22;204;48.942;9.256;2022-12-29T09:18:27;13.20;1.00
435;DHT22;204;48.942;9.256;2022-12-29T09:21:00;13.30;1.00
435;DHT22;204;48.942;9.256;2022-12-29T09:23:26;13.40;1.00
435;DHT22;204;48.942;9.256;2022-12-29T09:25:52;13.50;1.00
435;DHT22;204;48.942;9.256;2022-12-29T09:28:18;13.60;1.00
435;DHT22;204;48.942;9.256;2022-12-29T09:30:43;13.70;1.00
435;DHT22;204;48.942;9.256;2022-12-29T09:33:09;13.80;1.00
435;DHT22;204;48.942;9.256;2022-12-29T09:35:34;13.90;1.00
435;DHT22;204;48.942;9.256;2022-12-29T09:38:00;14.10;1.00
435;DHT22;204;48.942;9.256;2022-12-29T09:40:31;14.20;1.00
435;DHT22;204;48.942;9.256;2022-12-29T09:46:00;14.40;1.00
435;DHT22;204;48.942;9.256;2022-12-29T09:48:35;14.30;1.00
435;DHT22;204;48.942;9.256;2022-12-29T09:51:05;14.40;1.00
435;DHT22;204;48.942;9.256;2022-12-29T09:53:43;14.40;1.00
435;DHT22;204;48.942;9.256;2022-12-29T09:56:18;14.50;1.00
435;DHT22;204;48.942;9.256;2022-12-29T09:58:52;14.60;1.00
435;DHT22;204;48.942;9.256;2022-12-29T10:04:14;14.70;1.00
435;DHT22;204;48.942;9.256;2022-12-29T10:06:57;14.70;1.00
435;DHT22;204;48.942;9.256;2022-12-29T10:09:34;14.60;1.00
435;DHT22;204;48.942;9.256;2022-12-29T10:17:52;14.50;1.00
435;DHT22;204;48.942;9.256;2022-12-29T10:25:46;14.50;1.00
435;DHT22;204;48.942;9.256;2022-12-29T10:28:17;14.50;1.00
435;DHT22;204;48.942;9.256;2022-12-29T10:30:46;14.50;1.00
435;DHT22;204;48.942;9.256;2022-12-29T10:33:17;14.40;1.00
435;DHT22;204;48.942;9.256;2022-12-29T10:35:44;14.30;1.00
435;DHT22;204;48.942;9.256;2022-12-29T10:41:03;14.40;1.00
435;DHT22;204;48.942;9.256;2022-12-29T10:43:34;14.60;1.00
435;DHT22;204;48.942;9.256;2022-12-29T10:46:11;14.80;1.00
435;DHT22;204;48.942;9.256;2022-12-29T10:48:37;15.00;1.00
435;DHT22;204;48.942;9.256;2022-12-29T10:51:05;15.20;1.00
435;DHT22;204;48.942;9.256;2022-12-29T10:53:45;15.40;1.00
435;DHT22;204;48.942;9.256;2022-12-29T10:58:59;15.30;1.00
435;DHT22;204;48.942;9.256;2022-12-29T11:01:33;15.00;1.00
435;DHT22;204;48.942;9.256;2022-12-29T11:04:29;14.90;1.00
435;DHT22;204;48.942;9.256;2022-12-29T11:06:59;15.00;1.00
435;DHT22;204;48.942;9.256;2022-12-29T11:09:31;15.00;1.00
435;DHT22;204;48.942;9.256;2022-12-29T11:11:58;15.20;1.00
435;DHT22;204;48.942;9.256;2022-12-29T11:14:31;15.20;1.00
435;DHT22;204;48.942;9.256;2022-12-29T11:17:02;15.20;1.00
435;DHT22;204;48.942;9.256;2022-12-29T11:19:30;15.10;1.00
435;DHT22;204;48.942;9.256;2022-12-29T11:22:23;15.10;1.00
435;DHT22;204;48.942;9.256;2022-12-29T11:24:50;15.10;1.00
435;DHT22;204;48.942;9.256;2022-12-29T11:27:22;15.10;1.00
435;DHT22;204;48.942;9.256;2022-12-29T11:29:50;15.20;1.00
435;DHT22;204;48.942;9.256;2022-12-29T11:32:22;15.20;1.00
435;DHT22;204;48.942;9.256;2022-12-29T11:34:49;15.20;1.00
435;DHT22;204;48.942;9.256;2022-12-29T11:37:18;15.30;1.00
435;DHT22;204;48.942;9.256;2022-12-29T11:39:59;15.20;1.00
435;DHT22;204;48.942;9.256;2022-12-29T11:42:52;15.30;1.00
435;DHT22;204;48.942;9.256;2022-12-29T11:45:22;15.10;1.00
435;DHT22;204;48.942;9.256;2022-12-29T11:48:06;15.00;1.00
435;DHT22;204;48.942;9.256;2022-12-29T11:50:36;14.90;1.00
435;DHT22;204;48.942;9.256;2022-12-29T11:53:06;14.90;1.00
435;DHT22;204;48.942;9.256;2022-12-29T11:55:33;14.80;1.00
435;DHT22;204;48.942;9.256;2022-12-29T11:58:01;14.80;1.00
435;DHT22;204;48.942;9.256;2022-12-29T12:00:28;14.80;1.00
435;DHT22;204;48.942;9.256;2022-12-29T12:05:45;14.80;1.00
435;DHT22;204;48.942;9.256;2022-12-29T12:10:58;14.80;1.00
435;DHT22;204;48.942;9.256;2022-12-29T12:16:22;14.80;1.00
435;DHT22;204;48.942;9.256;2022-12-29T12:19:09;14.80;1.00
435;DHT22;204;48.942;9.256;2022-12-29T12:21:41;14.70;1.00
435;DHT22;204;48.942;9.256;2022-12-29T12:27:15;14.50;1.00
435;DHT22;204;48.942;9.256;2022-12-29T12:29:56;14.50;1.00
435;DHT22;204;48.942;9.256;2022-12-29T12:38:33;14.60;1.00
435;DHT22;204;48.942;9.256;2022-12-29T12:41:23;14.80;1.00
435;DHT22;204;48.942;9.256;2022-12-29T12:44:42;14.80;1.00
435;DHT22;204;48.942;9.256;2022-12-29T12:46:45;14.90;1.00
435;DHT22;204;48.942;9.256;2022-12-29T12:57:50;15.50;1.00
435;DHT22;204;48.942;9.256;2022-12-29T13:00:19;15.60;1.00
435;DHT22;204;48.942;9.256;2022-12-29T13:03:05;15.70;1.00
435;DHT22;204;48.942;9.256;2022-12-29T13:11:11;15.80;1.00
435;DHT22;204;48.942;9.256;2022-12-29T13:18:59;16.00;1.00
435;DHT22;204;48.942;9.256;2022-12-29T13:24:44;16.00;1.00
435;DHT22;204;48.942;9.256;2022-12-29T13:27:30;15.90;1.00
435;DHT22;204;48.942;9.256;2022-12-29T13:35:59;16.00;1.00
435;DHT22;204;48.942;9.256;2022-12-29T13:38:34;16.10;1.00
435;DHT22;204;48.942;9.256;2022-12-29T13:41:09;16.00;1.00
435;DHT22;204;48.942;9.256;2022-12-29T13:43:39;15.90;1.00
435;DHT22;204;48.942;9.256;2022-12-29T13:46:23;15.80;1.00
435;DHT22;204;48.942;9.256;2022-12-29T13:48:53;15.70;1.00
435;DHT22;204;48.942;9.256;2022-12-29T13:51:21;15.60;1.00
435;DHT22;204;48.942;9.256;2022-12-29T14:02:02;15.20;1.00
435;DHT22;204;48.942;9.256;2022-12-29T14:04:30;15.10;1.00
435;DHT22;204;48.942;9.256;2022-12-29T14:07:06;15.10;1.00
435;DHT22;204;48.942;9.256;2022-12-29T14:09:45;15.00;1.00
435;DHT22;204;48.942;9.256;2022-12-29T14:15:22;14.90;1.00
435;DHT22;204;48.942;9.256;2022-12-29T14:18:11;14.80;1.00
435;DHT22;204;48.942;9.256;2022-12-29T14:20:38;14.70;1.00
435;DHT22;204;48.942;9.256;2022-12-29T14:25:56;14.60;1.00
435;DHT22;204;48.942;9.256;2022-12-29T14:28:30;14.60;1.00
435;DHT22;204;48.942;9.256;2022-12-29T14:31:03;14.50;1.00
435;DHT22;204;48.942;9.256;2022-12-29T14:33:33;14.50;1.00
435;DHT22;204;48.942;9.256;2022-12-29T14:38:46;14.40;1.00
435;DHT22;204;48.942;9.256;2022-12-29T14:49:21;14.10;1.00
435;DHT22;204;48.942;9.256;2022-12-29T14:51:50;14.10;1.00
435;DHT22;204;48.942;9.256;2022-12-29T14:57:05;14.10;1.00
435;DHT22;204;48.942;9.256;2022-12-29T14:59:34;14.00;1.00
435;DHT22;204;48.942;9.256;2022-12-29T15:02:13;14.00;1.00
435;DHT22;204;48.942;9.256;2022-12-29T15:04:41;14.00;1.00
435;DHT22;204;48.942;9.256;2022-12-29T15:07:09;14.00;1.00
435;DHT22;204;48.942;9.256;2022-12-29T15:09:44;14.00;1.00
435;DHT22;204;48.942;9.256;2022-12-29T15:14:54;13.90;1.00
435;DHT22;204;48.942;9.256;2022-12-29T15:17:29;13.90;1.00
435;DHT22;204;48.942;9.256;2022-12-29T15:19:57;13.80;1.00
435;DHT22;204;48.942;9.256;2022-12-29T15:22:23;13.70;1.00
435;DHT22;204;48.942;9.256;2022-12-29T15:24:51;13.70;1.00
435;DHT22;204;48.942;9.256;2022-12-29T15:27:21;13.60;1.00
435;DHT22;204;48.942;9.256;2022-12-29T15:29:47;13.60;1.00
435;DHT22;204;48.942;9.256;2022-12-29T15:34:44;13.60;1.00
435;DHT22;204;48.942;9.256;2022-12-29T15:37:15;13.50;1.00
435;DHT22;204;48.942;9.256;2022-12-29T15:39:41;13.40;1.00
435;DHT22;204;48.942;9.256;2022-12-29T15:42:32;13.00;1.00
435;DHT22;204;48.942;9.256;2022-12-29T15:45:08;12.40;1.00
435;DHT22;204;48.942;9.256;2022-12-29T15:47:35;12.10;1.00
435;DHT22;204;48.942;9.256;2022-12-29T15:50:08;11.60;1.00
435;DHT22;204;48.942;9.256;2022-12-29T15:52:34;11.30;1.00
435;DHT22;204;48.942;9.256;2022-12-29T15:55:00;11.10;1.00
435;DHT22;204;48.942;9.256;2022-12-29T15:57:30;11.00;1.00
435;DHT22;204;48.942;9.256;2022-12-29T15:59:57;10.90;1.00
435;DHT22;204;48.942;9.256;2022-12-29T16:02:24;10.80;1.00
435;DHT22;204;48.942;9.256;2022-12-29T16:04:50;10.70;1.00
435;DHT22;204;48.942;9.256;2022-12-29T16:07:30;10.70;1.00
435;DHT22;204;48.942;9.256;2022-12-29T16:10:00;10.60;1.00
435;DHT22;204;48.942;9.256;2022-12-29T16:12:34;10.60;1.00
435;DHT22;204;48.942;9.256;2022-12-29T16:15:04;10.60;1.00
435;DHT22;204;48.942;9.256;2022-12-29T16:17:35;10.50;1.00
435;DHT22;204;48.942;9.256;2022-12-29T16:20:19;10.50;1.00
435;DHT22;204;48.942;9.256;2022-12-29T16:22:57;10.60;1.00
435;DHT22;204;48.942;9.256;2022-12-29T16:25:24;10.50;1.00
435;DHT22;204;48.942;9.256;2022-12-29T16:27:51;10.50;1.00
435;DHT22;204;48.942;9.256;2022-12-29T16:30:21;10.50;1.00
435;DHT22;204;48.942;9.256;2022-12-29T16:32:50;10.50;1.00
435;DHT22;204;48.942;9.256;2022-12-29T16:35:38;10.50;1.00
435;DHT22;204;48.942;9.256;2022-12-29T16:38:16;10.50;1.00
435;DHT22;204;48.942;9.256;2022-12-29T16:40:56;10.50;1.00
435;DHT22;204;48.942;9.256;2022-12-29T16:43:26;10.50;1.00
435;DHT22;204;48.942;9.256;2022-12-29T16:48:27;10.60;1.00
435;DHT22;204;48.942;9.256;2022-12-29T16:53:36;10.60;1.00
435;DHT22;204;48.942;9.256;2022-12-29T16:56:15;10.60;1.00
435;DHT22;204;48.942;9.256;2022-12-29T16:58:50;10.60;1.00
435;DHT22;204;48.942;9.256;2022-12-29T17:01:16;10.60;1.00
435;DHT22;204;48.942;9.256;2022-12-29T17:03:51;10.70;1.00
435;DHT22;204;48.942;9.256;2022-12-29T17:06:19;10.70;1.00
435;DHT22;204;48.942;9.256;2022-12-29T17:08:46;10.70;1.00
435;DHT22;204;48.942;9.256;2022-12-29T17:11:23;10.70;1.00
435;DHT22;204;48.942;9.256;2022-12-29T17:16:56;10.70;1.00
435;DHT22;204;48.942;9.256;2022-12-29T17:19:33;10.80;1.00
435;DHT22;204;48.942;9.256;2022-12-29T17:22:00;10.80;1.00
435;DHT22;204;48.942;9.256;2022-12-29T17:24:26;10.80;1.00
435;DHT22;204;48.942;9.256;2022-12-29T17:26:55;10.80;1.00
435;DHT22;204;48.942;9.256;2022-12-29T17:31:54;10.70;1.00
435;DHT22;204;48.942;9.256;2022-12-29T17:34:20;10.80;1.00
435;DHT22;204;48.942;9.256;2022-12-29T17:36:46;10.70;1.00
435;DHT22;204;48.942;9.256;2022-12-29T17:39:11;10.70;1.00
435;DHT22;204;48.942;9.256;2022-12-29T17:41:37;10.70;1.00
435;DHT22;204;48.942;9.256;2022-12-29T17:44:04;10.70;1.00
435;DHT22;204;48.942;9.256;2022-12-29T17:46:31;10.70;1.00
435;DHT22;204;48.942;9.256;2022-12-29T17:48:57;10.60;1.00
435;DHT22;204;48.942;9.256;2022-12-29T17:51:23;10.60;1.00
435;DHT22;204;48.942;9.256;2022-12-29T17:53:49;10.50;1.00
435;DHT22;204;48.942;9.256;2022-12-29T17:56:16;10.40;1.00
435;DHT22;204;48.942;9.256;2022-12-29T17:58:42;10.40;1.00
435;DHT22;204;48.942;9.256;2022-12-29T18:01:09;10.30;1.00
435;DHT22;204;48.942;9.256;2022-12-29T18:03:37;10.30;1.00
435;DHT22;204;48.942;9.256;2022-12-29T18:06:04;10.20;1.00
435;DHT22;204;48.942;9.256;2022-12-29T18:08:34;10.20;1.00
435;DHT22;204;48.942;9.256;2022-12-29T18:11:00;10.10;1.00
435;DHT22;204;48.942;9.256;2022-12-29T18:13:28;10.00;1.00
435;DHT22;204;48.942;9.256;2022-12-29T18:15:55;10.00;1.00
435;DHT22;204;48.942;9.256;2022-12-29T18:18:26;9.90;1.00
435;DHT22;204;48.942;9.256;2022-12-29T18:20:57;9.90;1.00
435;DHT22;204;48.942;9.256;2022-12-29T18:23:27;9.90;1.00
435;DHT22;204;48.942;9.256;2022-12-29T18:25:57;9.80;1.00
435;DHT22;204;48.942;9.256;2022-12-29T18:28:24;9.80;1.00
435;DHT22;204;48.942;9.256;2022-12-29T18:30:50;9.80;1.00
435;DHT22;204;48.942;9.256;2022-12-29T18:33:18;9.80;1.00
435;DHT22;204;48.942;9.256;2022-12-29T18:35:55;9.70;1.00
435;DHT22;204;48.942;9.256;2022-12-29T18:38:21;9.70;1.00
435;DHT22;204;48.942;9.256;2022-12-29T18:40:47;9.70;1.00
435;DHT22;204;48.942;9.256;2022-12-29T18:43:14;9.70;1.00
435;DHT22;204;48.942;9.256;2022-12-29T18:45:40;9.70;1.00
435;DHT22;204;48.942;9.256;2022-12-29T18:48:06;9.70;1.00
435;DHT22;204;48.942;9.256;2022-12-29T18:50:31;9.70;1.00
435;DHT22;204;48.942;9.256;2022-12-29T18:52:57;9.70;1.00
435;DHT22;204;48.942;9.256;2022-12-29T18:55:25;9.80;1.00
435;DHT22;204;48.942;9.256;2022-12-29T18:57:51;9.80;1.00
435;DHT22;204;48.942;9.256;2022-12-29T19:00:19;9.80;1.00
435;DHT22;204;48.942;9.256;2022-12-29T19:02:45;9.80;1.00
435;DHT22;204;48.942;9.256;2022-12-29T19:05:21;9.90;1.00
435;DHT22;204;48.942;9.256;2022-12-29T19:07:48;9.90;1.00
435;DHT22;204;48.942;9.256;2022-12-29T19:10:14;9.90;1.00
435;DHT22;204;48.942;9.256;2022-12-29T19:12:40;10.00;1.00
435;DHT22;204;48.942;9.256;2022-12-29T19:15:09;10.00;1.00
435;DHT22;204;48.942;9.256;2022-12-29T19:17:35;10.00;1.00
435;DHT22;204;48.942;9.256;2022-12-29T19:20:01;10.00;1.00
435;DHT22;204;48.942;9.256;2022-12-29T19:22:27;10.00;1.00
435;DHT22;204;48.942;9.256;2022-12-29T19:24:53;10.10;1.00
435;DHT22;204;48.942;9.256;2022-12-29T19:27:19;10.10;1.00
435;DHT22;204;48.942;9.256;2022-12-29T19:29:44;10.10;1.00
435;DHT22;204;48.942;9.256;2022-12-29T19:32:11;10.10;1.00
435;DHT22;204;48.942;9.256;2022-12-29T19:34:36;10.10;1.00